Terminal Aerodrome Forecast
Issued by NWS Jackson, MS

Home | Current Version | Previous Version | Text Only | Print | Product List | Glossary On
Versions: 1 2 3 4 5 6 7 8 9 10 11 12 13 14 15 16 17 18 19 20 21
000
FTUS44 KJAN 241600 AAA
TAFHBG
TAF AMD
KHBG 241619Z 2416/2512 31008KT P6SM SCT020
     FM241800 30011G17KT P6SM OVC020
     FM250000 30008KT P6SM OVC050
     FM250600 31003KT P6SM SCT050=

USA.gov is the U.S. government's official web portal to all federal, state and local government web resources and services.